Time;durP1;ratioP1;P1;durP2;ratioP2;P2;SDS_P1;SDS_P2;PMS_P1;PMS_P2;Temp;Humidity;BMP_temperature;BMP_pressure;BME280_temperature;BME280_humidity;BME280_pressure;Samples;Min_cycle;Max_cycle;Signal;HPM_P1;HPM_P2
2023/05/27 00:00:33;;;;;;;5.28;1.30;;;20.50;55.90;;;;;;5074557;28;20085;-72
2023/05/27 00:03:00;;;;;;;5.97;1.48;;;20.50;55.90;;;;;;5074656;28;20124;-72
2023/05/27 00:05:26;;;;;;;5.50;1.70;;;20.40;55.80;;;;;;5073628;28;20131;-72
2023/05/27 00:07:52;;;;;;;6.20;2.00;;;20.40;55.90;;;;;;5074780;28;20124;-72
2023/05/27 00:10:17;;;;;;;5.80;1.63;;;20.40;55.90;;;;;;5074592;28;20037;-72
2023/05/27 00:12:43;;;;;;;5.50;1.50;;;20.40;55.90;;;;;;5075223;28;20033;-72
2023/05/27 00:15:09;;;;;;;2.92;1.35;;;20.40;55.80;;;;;;5073205;28;20049;-72
2023/05/27 00:17:35;;;;;;;5.03;1.25;;;20.40;55.80;;;;;;5073538;28;20048;-72
2023/05/27 00:20:07;;;;;;;5.22;1.65;;;20.40;55.90;;;;;;5074007;28;20037;-72
2023/05/27 00:22:34;;;;;;;5.18;1.60;;;20.40;55.80;;;;;;5074151;28;20044;-72
2023/05/27 00:25:00;;;;;;;6.68;1.67;;;20.40;55.90;;;;;;5073376;28;20381;-72
2023/05/27 00:27:25;;;;;;;4.05;1.80;;;20.40;55.80;;;;;;5074210;28;20040;-72
2023/05/27 00:29:51;;;;;;;4.93;1.55;;;20.40;55.80;;;;;;5072783;28;20148;-72
2023/05/27 00:32:16;;;;;;;5.10;1.50;;;20.40;55.80;;;;;;5074539;28;20041;-72
2023/05/27 00:34:42;;;;;;;3.85;1.40;;;20.40;55.80;;;;;;5083639;28;20048;-70
2023/05/27 00:37:08;;;;;;;4.78;1.30;;;20.30;55.70;;;;;;5091760;28;20032;-70
2023/05/27 00:39:33;;;;;;;3.38;1.48;;;20.30;55.70;;;;;;5073298;28;20397;-70
2023/05/27 00:41:59;;;;;;;4.35;1.42;;;20.30;55.70;;;;;;5074773;28;20460;-70
2023/05/27 00:44:24;;;;;;;3.97;1.42;;;20.30;55.70;;;;;;5072365;28;20140;-70
2023/05/27 00:46:50;;;;;;;5.43;1.80;;;20.30;55.80;;;;;;5073289;28;20037;-70
2023/05/27 00:49:17;;;;;;;4.72;1.38;;;20.30;55.70;;;;;;5052775;28;20537;-72
2023/05/27 00:51:42;;;;;;;3.88;1.50;;;20.30;55.80;;;;;;5052404;28;20083;-72
2023/05/27 00:54:08;;;;;;;7.55;1.75;;;20.30;55.80;;;;;;5069307;28;20045;-72
2023/05/27 00:56:34;;;;;;;5.93;1.48;;;20.30;55.70;;;;;;5074419;28;20043;-72
2023/05/27 00:59:00;;;;;;;6.30;1.60;;;20.30;55.70;;;;;;5055651;28;20119;-72
2023/05/27 01:01:25;;;;;;;4.68;1.15;;;20.30;55.70;;;;;;5072953;28;20472;-71
2023/05/27 01:03:52;;;;;;;6.03;1.20;;;20.20;55.60;;;;;;5072522;28;20504;-71
2023/05/27 01:06:39;;;;;;;4.93;1.52;;;20.30;55.70;;;;;;5069637;28;20387;-72
2023/05/27 01:09:28;;;;;;;2.85;1.38;;;20.20;55.60;;;;;;5069697;28;20052;-71
2023/05/27 01:12:10;;;;;;;5.32;1.30;;;20.20;55.70;;;;;;5072137;28;20048;-71
2023/05/27 01:14:37;;;;;;;3.95;1.33;;;20.20;55.70;;;;;;5074186;28;20052;-71
2023/05/27 01:17:03;;;;;;;4.90;1.20;;;20.20;55.70;;;;;;5072789;28;20040;-72
2023/05/27 01:19:36;;;;;;;4.95;1.42;;;20.20;55.70;;;;;;5054686;28;20127;-71
2023/05/27 01:22:02;;;;;;;4.00;1.15;;;20.20;55.60;;;;;;5072757;28;20059;-71
2023/05/27 01:24:28;;;;;;;4.45;1.23;;;20.20;55.70;;;;;;5071103;28;20048;-70
2023/05/27 01:26:55;;;;;;;4.90;1.27;;;20.20;55.70;;;;;;5064623;28;20053;-71
2023/05/27 01:29:21;;;;;;;4.67;1.73;;;20.20;55.70;;;;;;5068337;28;20056;-71
2023/05/27 01:31:51;;;;;;;3.67;1.40;;;20.20;55.60;;;;;;5082541;28;20308;-70
2023/05/27 01:34:21;;;;;;;5.93;1.75;;;20.20;55.70;;;;;;5042976;28;20396;-70
2023/05/27 01:36:48;;;;;;;3.33;1.38;;;20.20;55.60;;;;;;5039845;28;20051;-71
2023/05/27 01:39:14;;;;;;;3.42;1.20;;;20.20;55.60;;;;;;5055797;28;20068;-71
2023/05/27 01:41:40;;;;;;;5.05;1.40;;;20.20;55.60;;;;;;5054028;28;20091;-71
2023/05/27 01:44:06;;;;;;;5.13;1.42;;;20.10;55.60;;;;;;5054741;28;20121;-72
2023/05/27 01:46:31;;;;;;;4.88;1.27;;;20.10;55.60;;;;;;5054362;28;20036;-72
2023/05/27 01:48:57;;;;;;;4.45;1.30;;;20.10;55.60;;;;;;5055490;28;20063;-71
2023/05/27 01:51:22;;;;;;;4.55;1.52;;;20.10;55.60;;;;;;5070086;28;20045;-71
2023/05/27 01:53:48;;;;;;;5.07;1.40;;;20.10;55.60;;;;;;5071365;28;20044;-72
2023/05/27 01:56:13;;;;;;;4.50;1.52;;;20.10;55.60;;;;;;5083043;28;20043;-71
2023/05/27 01:58:39;;;;;;;4.57;1.40;;;20.10;55.70;;;;;;5084161;28;20051;-71
2023/05/27 02:01:05;;;;;;;4.82;1.38;;;20.10;55.70;;;;;;5072285;28;20053;-72
2023/05/27 02:03:30;;;;;;;4.35;1.25;;;20.10;55.70;;;;;;5071380;28;20123;-71
2023/05/27 02:05:56;;;;;;;3.40;1.33;;;20.10;55.70;;;;;;5070952;28;20169;-71
2023/05/27 02:08:22;;;;;;;4.47;1.58;;;20.10;55.70;;;;;;5072019;28;20098;-71
2023/05/27 02:10:48;;;;;;;3.72;1.50;;;20.10;55.70;;;;;;5073123;28;20044;-72
2023/05/27 02:13:13;;;;;;;5.57;1.63;;;20.10;55.70;;;;;;5072686;28;20040;-71
2023/05/27 02:15:40;;;;;;;6.30;1.38;;;20.10;55.70;;;;;;5070827;28;20044;-71
2023/05/27 02:18:06;;;;;;;3.83;1.40;;;20.00;55.60;;;;;;5071114;28;20052;-72
2023/05/27 02:20:31;;;;;;;4.75;1.73;;;20.00;55.60;;;;;;5072957;28;20059;-71
2023/05/27 02:22:57;;;;;;;3.63;1.13;;;20.00;55.60;;;;;;5072047;28;20048;-71
2023/05/27 02:25:22;;;;;;;4.25;1.35;;;20.00;55.60;;;;;;5072200;28;20040;-72
2023/05/27 02:27:48;;;;;;;4.65;1.30;;;20.00;55.60;;;;;;5072283;28;20056;-72
2023/05/27 02:30:17;;;;;;;3.75;1.45;;;20.00;55.60;;;;;;5070611;28;20410;-72
2023/05/27 02:32:43;;;;;;;4.40;1.45;;;20.00;55.60;;;;;;5072642;28;20094;-72
2023/05/27 02:35:12;;;;;;;4.72;1.42;;;20.00;55.60;;;;;;5072078;28;20499;-71
2023/05/27 02:37:38;;;;;;;3.88;1.30;;;20.00;55.70;;;;;;5077100;28;20454;-71
2023/05/27 02:40:05;;;;;;;4.35;1.60;;;20.00;55.60;;;;;;5073894;28;20124;-71
2023/05/27 02:42:30;;;;;;;4.55;1.40;;;20.00;55.70;;;;;;5072441;28;20041;-71
2023/05/27 02:44:56;;;;;;;4.75;1.50;;;20.00;55.70;;;;;;5070015;28;20101;-71
2023/05/27 02:47:21;;;;;;;4.95;1.60;;;20.00;55.70;;;;;;5070845;28;20127;-71
2023/05/27 02:49:47;;;;;;;6.28;1.65;;;20.00;55.70;;;;;;5071353;28;20044;-71
2023/05/27 02:52:13;;;;;;;5.07;1.45;;;19.90;55.60;;;;;;5071013;28;20044;-71
2023/05/27 02:54:38;;;;;;;5.25;1.27;;;19.90;55.60;;;;;;5071930;28;20093;-70
2023/05/27 02:57:04;;;;;;;4.72;1.55;;;19.90;55.60;;;;;;5070562;28;20400;-71
2023/05/27 02:59:29;;;;;;;4.47;1.30;;;20.00;55.70;;;;;;5072170;28;20071;-71
2023/05/27 03:01:55;;;;;;;3.72;1.20;;;19.90;55.60;;;;;;5072231;28;20134;-71
2023/05/27 03:04:21;;;;;;;4.18;1.10;;;19.90;55.60;;;;;;5071000;28;20037;-70
2023/05/27 03:06:47;;;;;;;4.10;1.40;;;19.90;55.60;;;;;;5072036;28;20044;-71
2023/05/27 03:09:14;;;;;;;3.70;1.20;;;19.90;55.60;;;;;;5071610;28;20510;-71
2023/05/27 03:11:39;;;;;;;3.72;1.02;;;19.90;55.50;;;;;;5071616;28;20127;-70
2023/05/27 03:14:05;;;;;;;3.78;1.20;;;19.90;55.50;;;;;;5070813;28;20123;-71
2023/05/27 03:16:31;;;;;;;4.40;1.30;;;19.90;55.40;;;;;;5072243;28;20041;-71
2023/05/27 03:18:56;;;;;;;4.03;1.38;;;19.90;55.40;;;;;;5068753;28;20130;-71
2023/05/27 03:21:22;;;;;;;3.85;1.50;;;19.90;55.40;;;;;;5070537;28;20072;-71
2023/05/27 03:23:48;;;;;;;3.45;1.00;;;19.90;55.40;;;;;;5053860;28;20033;-70
2023/05/27 03:26:13;;;;;;;4.07;1.30;;;19.90;55.40;;;;;;5070788;28;20046;-71
2023/05/27 03:28:39;;;;;;;3.72;1.30;;;19.90;55.40;;;;;;5070151;28;20132;-71
2023/05/27 03:31:05;;;;;;;4.07;1.48;;;19.90;55.40;;;;;;5070792;28;20539;-70
2023/05/27 03:33:30;;;;;;;6.63;1.70;;;19.90;55.40;;;;;;5069606;28;20120;-70
2023/05/27 03:35:56;;;;;;;4.03;1.60;;;19.90;55.40;;;;;;5037274;28;20132;-70
2023/05/27 03:38:21;;;;;;;3.63;1.15;;;19.90;55.40;;;;;;5071705;28;20124;-70
2023/05/27 03:40:47;;;;;;;5.20;1.50;;;20.00;55.60;;;;;;5071141;28;20079;-70
2023/05/27 03:43:12;;;;;;;4.82;1.40;;;19.90;55.50;;;;;;5070189;28;20072;-70
2023/05/27 03:45:38;;;;;;;4.78;1.20;;;19.90;55.50;;;;;;5071822;28;20080;-71
2023/05/27 03:48:03;;;;;;;2.83;1.10;;;20.00;55.60;;;;;;5069951;28;20044;-70
2023/05/27 03:50:29;;;;;;;3.67;1.20;;;20.00;56.30;;;;;;5071581;28;20044;-70
2023/05/27 03:52:55;;;;;;;4.43;1.38;;;20.00;55.60;;;;;;5070166;28;20205;-71
2023/05/27 03:55:20;;;;;;;4.20;1.40;;;20.00;55.60;;;;;;5069759;28;20056;-70
2023/05/27 03:57:46;;;;;;;2.10;0.98;;;20.00;55.60;;;;;;5070479;28;20052;-70
2023/05/27 04:00:12;;;;;;;3.22;1.35;;;20.00;56.30;;;;;;5070454;28;20074;-70
2023/05/27 04:02:38;;;;;;;4.15;1.10;;;20.00;55.70;;;;;;5070274;28;20132;-70
2023/05/27 04:05:04;;;;;;;3.90;1.38;;;20.00;55.60;;;;;;5071238;28;20045;-70
2023/05/27 04:07:31;;;;;;;3.55;1.10;;;20.00;55.70;;;;;;5069127;28;20381;-71
2023/05/27 04:09:57;;;;;;;6.43;1.48;;;20.00;55.60;;;;;;5073245;28;20569;-71
2023/05/27 04:12:23;;;;;;;4.43;1.33;;;20.00;55.60;;;;;;5073615;28;20067;-70
2023/05/27 04:14:48;;;;;;;3.90;1.20;;;20.00;55.60;;;;;;5077001;28;20048;-71
2023/05/27 04:17:14;;;;;;;3.40;1.10;;;20.10;55.70;;;;;;5073884;28;20506;-71
2023/05/27 04:19:39;;;;;;;3.25;1.15;;;20.10;55.70;;;;;;5073574;28;20047;-71
2023/05/27 04:22:05;;;;;;;3.80;1.33;;;20.10;55.80;;;;;;5074172;28;20052;-71
2023/05/27 04:24:30;;;;;;;3.80;1.35;;;20.10;55.80;;;;;;5073438;28;20052;-71
2023/05/27 04:26:56;;;;;;;4.95;1.40;;;20.10;55.80;;;;;;5080052;28;20060;-71
2023/05/27 04:29:25;;;;;;;3.30;1.30;;;20.10;55.80;;;;;;5087649;28;20037;-71
2023/05/27 04:31:50;;;;;;;5.00;1.65;;;20.10;55.80;;;;;;5075067;28;20048;-71
2023/05/27 04:34:16;;;;;;;2.65;1.10;;;20.20;55.70;;;;;;5072931;28;20045;-71
2023/05/27 04:36:43;;;;;;;2.97;1.05;;;20.20;55.70;;;;;;5074320;28;20040;-70
2023/05/27 04:39:11;;;;;;;3.50;1.17;;;20.20;55.70;;;;;;5072634;28;20405;-71
2023/05/27 04:41:39;;;;;;;4.63;1.50;;;20.20;55.70;;;;;;5074647;28;20045;-71
2023/05/27 04:44:05;;;;;;;4.63;1.50;;;20.20;55.70;;;;;;5072373;28;20036;-71
2023/05/27 04:46:30;;;;;;;3.15;1.33;;;20.20;55.70;;;;;;5074746;28;20136;-70
2023/05/27 04:48:56;;;;;;;3.08;1.08;;;20.20;55.70;;;;;;5073047;28;20044;-72
2023/05/27 04:51:22;;;;;;;4.75;1.38;;;20.20;55.60;;;;;;5071999;28;20136;-71
2023/05/27 04:53:48;;;;;;;4.78;1.40;;;20.30;55.70;;;;;;5073226;28;20124;-71
2023/05/27 04:56:16;;;;;;;3.92;1.10;;;20.20;55.60;;;;;;5072249;28;20044;-71
2023/05/27 04:58:46;;;;;;;4.25;1.35;;;20.20;55.70;;;;;;5074568;28;20040;-70
2023/05/27 05:01:17;;;;;;;4.10;1.23;;;20.20;55.60;;;;;;5074057;28;20036;-71
2023/05/27 05:03:52;;;;;;;4.57;1.30;;;20.30;55.70;;;;;;5069546;28;20504;-71
2023/05/27 05:06:22;;;;;;;5.95;1.70;;;20.30;55.70;;;;;;5053577;28;20041;-70
2023/05/27 05:08:48;;;;;;;4.93;1.30;;;20.30;55.80;;;;;;5054267;28;20102;-71
2023/05/27 05:11:14;;;;;;;4.07;1.20;;;20.30;55.80;;;;;;5072677;28;20048;-71
2023/05/27 05:13:40;;;;;;;3.35;1.30;;;20.30;55.80;;;;;;5073470;28;20395;-71
2023/05/27 05:16:05;;;;;;;3.65;1.10;;;20.30;55.80;;;;;;5073738;28;20516;-72
2023/05/27 05:18:31;;;;;;;5.25;1.20;;;20.30;55.80;;;;;;5071668;28;20056;-71
2023/05/27 05:20:56;;;;;;;3.20;1.20;;;20.30;55.80;;;;;;5071240;28;20047;-71
2023/05/27 05:23:22;;;;;;;3.45;1.15;;;20.30;55.80;;;;;;5073841;28;20048;-71
2023/05/27 05:25:54;;;;;;;3.53;1.63;;;20.30;55.80;;;;;;5071501;28;20036;-71
2023/05/27 05:28:20;;;;;;;3.63;1.35;;;20.40;55.90;;;;;;5072230;28;20052;-71
2023/05/27 05:30:45;;;;;;;4.05;1.23;;;20.30;55.80;;;;;;5073712;28;20056;-71
2023/05/27 05:33:11;;;;;;;2.97;1.00;;;20.30;55.80;;;;;;5072145;28;20110;-71
2023/05/27 05:35:36;;;;;;;4.20;1.30;;;20.30;55.80;;;;;;5072102;28;20045;-71
2023/05/27 05:38:02;;;;;;;4.55;1.10;;;20.40;55.90;;;;;;5072685;28;20131;-72
2023/05/27 05:40:27;;;;;;;4.05;1.25;;;20.30;55.80;;;;;;5071265;28;20594;-71
2023/05/27 05:42:53;;;;;;;5.35;1.38;;;20.30;55.80;;;;;;5072201;28;20365;-71
2023/05/27 05:45:18;;;;;;;4.05;1.27;;;20.30;55.80;;;;;;5071383;28;20070;-71
2023/05/27 05:47:44;;;;;;;5.25;1.38;;;20.40;55.90;;;;;;5072422;28;20119;-71
2023/05/27 05:50:10;;;;;;;4.57;1.27;;;20.40;55.90;;;;;;5075715;28;20036;-80
2023/05/27 05:52:35;;;;;;;3.30;1.20;;;20.40;55.90;;;;;;5087718;28;20501;-85
2023/05/27 05:55:01;;;;;;;3.40;1.20;;;20.40;55.90;;;;;;5073461;28;20531;-70
2023/05/27 05:57:26;;;;;;;2.97;1.00;;;20.40;55.90;;;;;;5072866;28;20555;-70
2023/05/27 05:59:52;;;;;;;4.07;1.17;;;20.40;56.00;;;;;;5072280;28;20040;-71
2023/05/27 06:02:17;;;;;;;6.35;1.30;;;20.40;55.90;;;;;;5071606;28;20085;-71
2023/05/27 06:04:44;;;;;;;6.55;1.30;;;20.40;56.00;;;;;;5072927;28;20087;-71
2023/05/27 06:07:09;;;;;;;6.85;1.45;;;20.50;56.10;;;;;;5070703;28;20170;-72
2023/05/27 06:09:35;;;;;;;4.25;1.30;;;20.50;56.20;;;;;;5073030;28;20123;-72
2023/05/27 06:12:00;;;;;;;5.32;1.90;;;20.50;56.30;;;;;;5072970;28;20075;-72
2023/05/27 06:14:26;;;;;;;5.38;1.50;;;20.50;56.30;;;;;;5072086;28;20044;-71
2023/05/27 06:16:52;;;;;;;7.57;1.50;;;20.50;56.40;;;;;;5071591;28;20032;-65
2023/05/27 06:19:17;;;;;;;11.68;1.60;;;20.50;56.40;;;;;;5072713;28;20056;-73
2023/05/27 06:21:43;;;;;;;4.68;1.13;;;20.50;56.50;;;;;;5069963;28;20052;-70
2023/05/27 06:24:08;;;;;;;9.27;1.73;;;20.60;56.80;;;;;;5071080;28;20041;-72
2023/05/27 06:26:34;;;;;;;5.53;1.60;;;20.60;57.70;;;;;;5070947;28;20041;-74
2023/05/27 06:28:59;;;;;;;6.50;1.40;;;20.60;57.10;;;;;;5072041;28;20481;-72
2023/05/27 06:31:26;;;;;;;7.35;1.52;;;20.60;57.20;;;;;;5086379;28;20050;-76
2023/05/27 06:33:52;;;;;;;8.07;1.42;;;20.50;57.20;;;;;;5092770;28;20503;-73
2023/05/27 06:36:18;;;;;;;5.50;1.48;;;20.60;57.30;;;;;;5075987;28;20043;-72
2023/05/27 06:38:44;;;;;;;4.82;1.38;;;20.60;57.40;;;;;;5072902;28;20087;-75
2023/05/27 06:41:10;;;;;;;12.32;1.58;;;20.60;57.50;;;;;;5070654;28;20072;-73
2023/05/27 06:43:35;;;;;;;6.22;1.55;;;20.60;57.50;;;;;;5071529;28;20075;-75
2023/05/27 06:46:01;;;;;;;5.22;1.60;;;20.60;57.60;;;;;;5070932;28;20083;-81
2023/05/27 06:48:27;;;;;;;5.75;1.77;;;20.60;57.60;;;;;;5087945;28;20106;-69
2023/05/27 06:50:52;;;;;;;8.27;1.80;;;20.60;57.60;;;;;;5070225;28;20040;-76
2023/05/27 06:53:18;;;;;;;5.30;1.63;;;20.60;57.50;;;;;;5072111;28;20041;-77
2023/05/27 06:55:43;;;;;;;6.40;1.58;;;20.70;57.50;;;;;;5072119;28;20095;-75
2023/05/27 06:58:09;;;;;;;8.10;1.83;;;20.70;57.50;;;;;;5081120;28;20127;-73
2023/05/27 07:00:35;;;;;;;7.40;1.52;;;20.60;57.60;;;;;;5084362;28;20087;-72
2023/05/27 07:03:02;;;;;;;7.28;1.80;;;20.70;57.70;;;;;;5071701;28;20424;-72
2023/05/27 07:05:27;;;;;;;5.78;1.52;;;20.70;57.80;;;;;;5077735;28;20550;-72
2023/05/27 07:07:53;;;;;;;5.22;1.70;;;20.70;57.70;;;;;;5072390;28;20037;-78
2023/05/27 07:10:18;;;;;;;4.15;1.50;;;20.70;57.70;;;;;;5071303;28;20041;-78
2023/05/27 07:12:44;;;;;;;8.05;1.60;;;20.70;57.70;;;;;;5072063;28;20047;-77
2023/05/27 07:15:10;;;;;;;6.68;1.50;;;20.70;57.80;;;;;;5071648;28;20145;-81
2023/05/27 07:17:36;;;;;;;4.45;1.80;;;20.70;57.70;;;;;;5070213;28;20048;-77
2023/05/27 07:20:02;;;;;;;5.88;1.33;;;20.70;57.70;;;;;;5071788;28;20051;-77
2023/05/27 07:22:27;;;;;;;8.82;1.52;;;20.80;57.80;;;;;;5071531;28;20484;-77
2023/05/27 07:24:53;;;;;;;4.68;1.38;;;20.80;57.80;;;;;;5070048;28;20041;-77
2023/05/27 07:27:18;;;;;;;4.82;1.40;;;20.80;57.80;;;;;;5070213;28;20056;-75
2023/05/27 07:29:44;;;;;;;8.55;1.95;;;20.80;57.90;;;;;;5070599;28;20049;-75
2023/05/27 07:32:09;;;;;;;5.88;1.42;;;20.80;57.90;;;;;;5069639;28;20071;-76
2023/05/27 07:34:35;;;;;;;7.53;1.77;;;20.80;57.90;;;;;;5070816;28;20546;-75
2023/05/27 07:37:00;;;;;;;9.65;1.60;;;20.80;58.00;;;;;;5072013;28;20445;-75
2023/05/27 07:39:26;;;;;;;6.88;1.73;;;20.80;57.90;;;;;;5070918;28;20438;-76
2023/05/27 07:41:53;;;;;;;6.60;2.00;;;20.80;57.90;;;;;;5071866;28;20127;-76
2023/05/27 07:44:18;;;;;;;5.75;1.58;;;20.80;57.90;;;;;;5072602;28;20127;-75
2023/05/27 07:46:44;;;;;;;5.90;1.70;;;20.90;58.00;;;;;;5075134;28;20086;-77
2023/05/27 07:49:09;;;;;;;5.35;1.70;;;20.80;58.00;;;;;;5075690;28;20044;-78
2023/05/27 07:51:36;;;;;;;8.55;1.85;;;20.90;58.00;;;;;;5075784;28;20036;-74
2023/05/27 07:54:01;;;;;;;8.18;1.67;;;20.90;58.00;;;;;;5073511;28;20498;-77
2023/05/27 07:56:27;;;;;;;6.70;1.70;;;20.90;58.00;;;;;;5075056;28;20045;-76
2023/05/27 07:58:52;;;;;;;6.85;1.65;;;20.90;58.00;;;;;;5074132;28;20127;-74
2023/05/27 08:01:18;;;;;;;3.70;1.33;;;20.90;58.20;;;;;;5074279;28;20071;-79
2023/05/27 08:03:44;;;;;;;6.75;1.48;;;20.90;58.10;;;;;;5075662;28;20086;-75
2023/05/27 08:06:09;;;;;;;6.20;1.77;;;21.00;58.10;;;;;;5073185;28;20483;-75
2023/05/27 08:08:35;;;;;;;6.10;1.50;;;20.90;58.70;;;;;;5074006;28;20036;-75
2023/05/27 08:11:00;;;;;;;7.00;2.35;;;20.90;58.00;;;;;;5075372;28;20045;-76
2023/05/27 08:13:26;;;;;;;9.35;1.77;;;20.90;58.00;;;;;;5073953;28;20071;-75
2023/05/27 08:15:51;;;;;;;5.60;1.40;;;21.00;58.20;;;;;;5073751;28;20040;-76
2023/05/27 08:18:17;;;;;;;7.68;1.67;;;21.00;58.20;;;;;;5075009;28;20045;-75
2023/05/27 08:20:42;;;;;;;6.95;1.67;;;21.00;58.10;;;;;;5072608;28;20352;-75
2023/05/27 08:23:08;;;;;;;4.38;1.30;;;21.00;58.20;;;;;;5073613;28;20069;-76
2023/05/27 08:25:34;;;;;;;5.05;1.40;;;21.00;58.20;;;;;;5073847;28;20045;-75
2023/05/27 08:28:02;;;;;;;4.70;1.60;;;21.00;58.10;;;;;;5073578;28;20059;-73
2023/05/27 08:30:28;;;;;;;5.05;1.20;;;21.00;57.90;;;;;;5072956;28;20050;-72
2023/05/27 08:32:55;;;;;;;5.78;1.50;;;21.00;57.70;;;;;;5075337;28;20036;-73
2023/05/27 08:35:21;;;;;;;6.38;1.63;;;21.00;57.40;;;;;;5074199;28;20496;-74
2023/05/27 08:37:46;;;;;;;5.60;1.30;;;21.00;57.30;;;;;;5074990;28;20040;-72
2023/05/27 08:40:17;;;;;;;6.78;1.50;;;21.00;57.10;;;;;;5074945;28;20048;-72
2023/05/27 08:42:42;;;;;;;7.40;1.75;;;21.00;57.00;;;;;;5071744;28;20052;-73
2023/05/27 08:45:09;;;;;;;5.68;1.35;;;21.00;57.00;;;;;;5071323;28;20051;-73
2023/05/27 08:47:34;;;;;;;4.97;1.75;;;21.00;57.00;;;;;;5074554;28;20037;-73
2023/05/27 08:50:00;;;;;;;6.15;2.00;;;21.00;57.00;;;;;;5072533;28;20064;-73
2023/05/27 08:52:29;;;;;;;4.68;1.52;;;21.00;56.90;;;;;;5056134;28;20047;-72
2023/05/27 08:54:58;;;;;;;4.30;1.42;;;21.00;57.00;;;;;;5071668;28;20124;-72
2023/05/27 08:57:29;;;;;;;7.28;1.40;;;21.10;57.00;;;;;;5071694;28;20048;-72
2023/05/27 08:59:55;;;;;;;3.63;1.58;;;21.10;57.00;;;;;;5073323;28;20048;-73
2023/05/27 09:02:21;;;;;;;5.53;1.42;;;21.10;57.70;;;;;;5074346;28;20174;-75
2023/05/27 09:04:47;;;;;;;4.57;1.85;;;21.10;57.00;;;;;;5074014;28;20087;-72
2023/05/27 09:07:12;;;;;;;9.45;1.88;;;21.10;57.00;;;;;;5072968;28;20044;-74
2023/05/27 09:09:41;;;;;;;5.32;1.52;;;21.10;57.00;;;;;;5071927;28;20415;-76
2023/05/27 09:12:08;;;;;;;10.90;1.65;;;21.10;57.00;;;;;;5071523;28;20048;-70
2023/05/27 09:14:37;;;;;;;9.18;2.08;;;21.10;57.00;;;;;;5073660;28;20044;-79
2023/05/27 09:17:06;;;;;;;8.65;1.90;;;21.10;57.20;;;;;;5071717;28;20055;-70
2023/05/27 09:19:32;;;;;;;9.50;2.20;;;21.20;57.20;;;;;;5072058;28;20484;-72
2023/05/27 09:21:57;;;;;;;10.88;1.90;;;21.20;57.20;;;;;;5072461;28;20041;-77
2023/05/27 09:24:26;;;;;;;11.50;2.08;;;21.20;57.30;;;;;;5071989;28;20507;-77
2023/05/27 09:26:55;;;;;;;11.60;2.10;;;21.20;57.40;;;;;;5072323;28;20048;-74
2023/05/27 09:29:27;;;;;;;7.50;1.88;;;21.20;57.40;;;;;;5072468;28;20124;-79
2023/05/27 09:31:55;;;;;;;9.57;1.98;;;21.20;57.40;;;;;;5072703;28;20041;-78
2023/05/27 09:34:21;;;;;;;7.93;2.00;;;21.20;57.40;;;;;;5070324;28;20072;-74
2023/05/27 09:36:48;;;;;;;10.85;2.15;;;21.20;57.60;;;;;;5072673;28;20079;-79
2023/05/27 09:39:14;;;;;;;12.57;2.10;;;21.20;57.70;;;;;;5071780;28;20045;-80
2023/05/27 09:41:40;;;;;;;8.77;2.03;;;21.20;57.70;;;;;;5072681;28;20050;-75
2023/05/27 09:44:06;;;;;;;8.25;2.17;;;21.30;57.90;;;;;;5054976;28;20049;-74
2023/05/27 09:46:32;;;;;;;11.75;2.22;;;21.30;57.80;;;;;;5071197;28;20068;-76
2023/05/27 09:48:58;;;;;;;11.77;1.90;;;21.30;57.90;;;;;;5072939;28;20045;-81
2023/05/27 09:51:24;;;;;;;9.27;1.80;;;21.30;57.80;;;;;;5071167;28;20399;-81
2023/05/27 09:53:50;;;;;;;10.32;1.90;;;21.30;57.90;;;;;;5086849;28;20037;-82
2023/05/27 09:56:16;;;;;;;11.38;1.98;;;21.30;57.90;;;;;;5070518;28;20048;-76
2023/05/27 09:58:42;;;;;;;7.32;1.98;;;21.30;58.00;;;;;;5059677;28;20396;-78
2023/05/27 10:01:07;;;;;;;11.65;2.35;;;21.30;58.00;;;;;;5072645;28;20058;-77
2023/05/27 10:03:33;;;;;;;7.47;1.60;;;21.30;58.10;;;;;;5071601;28;20119;-75
2023/05/27 10:05:59;;;;;;;6.75;1.90;;;21.30;58.10;;;;;;5070249;28;20112;-82
2023/05/27 10:08:25;;;;;;;6.90;2.08;;;21.30;58.10;;;;;;5034656;28;20041;-79
2023/05/27 10:10:50;;;;;;;6.50;1.83;;;21.30;58.80;;;;;;5053141;28;20055;-79
2023/05/27 10:13:16;;;;;;;8.57;1.77;;;21.30;58.10;;;;;;5071647;28;20049;-84
2023/05/27 10:15:46;;;;;;;9.52;2.10;;;21.30;58.10;;;;;;5054905;28;20053;-76
2023/05/27 10:18:21;;;;;;;7.68;1.90;;;21.30;58.10;;;;;;5070980;28;20128;-77
2023/05/27 10:20:49;;;;;;;6.35;1.50;;;21.30;58.10;;;;;;5053992;28;20080;-73
2023/05/27 10:23:16;;;;;;;7.65;1.70;;;21.30;58.10;;;;;;5072173;28;20041;-74
2023/05/27 10:25:49;;;;;;;9.70;1.88;;;21.40;58.20;;;;;;5067425;28;20128;-73
2023/05/27 10:28:31;;;;;;;7.75;1.60;;;21.40;58.20;;;;;;5063586;28;20052;-76
2023/05/27 10:31:09;;;;;;;8.75;1.98;;;21.40;58.20;;;;;;5072327;28;20044;-75
2023/05/27 10:33:36;;;;;;;7.13;1.67;;;21.30;58.10;;;;;;5072633;28;20047;-77
2023/05/27 10:36:09;;;;;;;6.97;2.17;;;21.40;58.40;;;;;;5070400;28;20044;-76
2023/05/27 10:38:35;;;;;;;8.00;2.03;;;21.40;58.20;;;;;;5055002;28;20510;-78
2023/05/27 10:41:01;;;;;;;7.22;1.90;;;21.30;58.30;;;;;;5071083;28;20044;-76
2023/05/27 10:43:28;;;;;;;6.63;1.92;;;21.30;58.40;;;;;;5070241;28;20503;-75
2023/05/27 10:46:08;;;;;;;8.23;1.90;;;21.40;58.30;;;;;;5072418;28;20400;-75
2023/05/27 10:48:33;;;;;;;6.22;1.83;;;21.40;58.10;;;;;;5071840;28;20381;-73
2023/05/27 10:50:59;;;;;;;4.95;1.77;;;21.40;58.00;;;;;;5071441;28;20616;-74
2023/05/27 10:53:28;;;;;;;5.82;1.88;;;21.40;57.90;;;;;;5070785;28;20417;-74
2023/05/27 10:55:54;;;;;;;7.25;2.13;;;21.40;57.80;;;;;;5070597;28;20537;-74
2023/05/27 10:58:20;;;;;;;6.90;1.63;;;21.40;57.80;;;;;;5072611;28;20036;-73
2023/05/27 11:00:52;;;;;;;5.88;1.60;;;21.40;57.70;;;;;;5071064;28;20051;-73
2023/05/27 11:03:26;;;;;;;3.45;1.33;;;21.40;57.80;;;;;;5071533;28;20055;-74
2023/05/27 11:06:04;;;;;;;6.78;1.70;;;21.40;57.80;;;;;;5072423;28;20055;-74
2023/05/27 11:08:31;;;;;;;8.45;1.98;;;21.40;57.70;;;;;;5072094;28;20437;-74
2023/05/27 11:11:05;;;;;;;6.28;1.95;;;21.40;57.80;;;;;;5070557;28;20045;-74
2023/05/27 11:13:34;;;;;;;7.78;1.95;;;21.40;57.80;;;;;;5072509;28;20044;-74
2023/05/27 11:16:01;;;;;;;6.28;1.80;;;21.40;57.80;;;;;;5057364;28;20389;-75
2023/05/27 11:18:47;;;;;;;5.95;2.00;;;21.40;57.90;;;;;;5072038;28;20064;-73
2023/05/27 11:21:17;;;;;;;7.97;2.33;;;21.40;57.90;;;;;;5075728;28;20075;-73
2023/05/27 11:23:47;;;;;;;5.80;1.58;;;21.40;57.90;;;;;;5074128;28;20075;-73
2023/05/27 11:26:13;;;;;;;7.80;2.25;;;21.40;57.80;;;;;;5069026;28;20048;-72
2023/05/27 11:28:55;;;;;;;6.85;2.15;;;21.40;57.50;;;;;;5076324;28;20048;-72
2023/05/27 11:31:22;;;;;;;9.02;2.35;;;21.40;57.10;;;;;;5055955;28;20059;-73
2023/05/27 11:33:51;;;;;;;7.10;2.28;;;21.40;57.00;;;;;;5074441;28;20116;-73
2023/05/27 11:36:16;;;;;;;7.18;1.95;;;21.40;56.90;;;;;;5075379;28;20434;-71
2023/05/27 11:38:51;;;;;;;8.82;2.28;;;21.40;56.90;;;;;;5074972;28;20492;-68
2023/05/27 11:41:21;;;;;;;10.63;2.53;;;21.40;56.90;;;;;;5074198;28;20053;-67
2023/05/27 11:43:51;;;;;;;9.43;3.72;;;21.40;57.10;;;;;;5075222;28;20392;-71
2023/05/27 11:46:16;;;;;;;11.32;3.00;;;21.40;57.10;;;;;;5073612;28;20049;-71
2023/05/27 11:48:42;;;;;;;14.48;3.40;;;21.50;57.10;;;;;;5075777;28;20044;-71
2023/05/27 11:51:08;;;;;;;10.85;3.38;;;21.40;57.00;;;;;;5074257;28;20048;-72
2023/05/27 11:53:38;;;;;;;12.05;3.40;;;21.40;56.90;;;;;;5075003;28;20044;-61
2023/05/27 11:56:03;;;;;;;13.60;4.03;;;21.50;57.00;;;;;;5074330;28;20492;-62
2023/05/27 11:58:29;;;;;;;12.05;3.33;;;21.50;57.00;;;;;;5074499;28;20048;-62
2023/05/27 12:00:55;;;;;;;12.02;3.83;;;21.50;57.00;;;;;;5074105;28;20043;-63
2023/05/27 12:03:20;;;;;;;11.55;3.45;;;21.50;57.00;;;;;;5075137;28;20064;-61
2023/05/27 12:05:47;;;;;;;11.70;3.40;;;21.50;57.00;;;;;;5074323;28;20070;-61
2023/05/27 12:08:13;;;;;;;11.25;3.25;;;21.50;57.00;;;;;;5073947;28;20049;-60
2023/05/27 12:10:38;;;;;;;8.77;2.97;;;21.50;56.90;;;;;;5075569;28;20044;-60
2023/05/27 12:13:04;;;;;;;11.40;3.47;;;21.50;57.00;;;;;;5073396;28;20087;-60
2023/05/27 12:15:31;;;;;;;9.80;3.35;;;21.50;57.00;;;;;;5075440;28;20101;-60
2023/05/27 12:17:56;;;;;;;14.73;3.78;;;21.50;57.00;;;;;;5075681;28;20045;-60
2023/05/27 12:20:27;;;;;;;11.98;3.30;;;21.50;56.90;;;;;;5074401;28;20059;-61
2023/05/27 12:22:53;;;;;;;8.38;3.13;;;21.50;56.90;;;;;;5074193;28;20041;-61
2023/05/27 12:25:18;;;;;;;9.48;3.20;;;21.50;57.00;;;;;;5073497;28;20406;-61
2023/05/27 12:27:44;;;;;;;8.77;3.50;;;21.50;56.90;;;;;;5074196;28;20136;-61
2023/05/27 12:30:10;;;;;;;10.43;3.00;;;21.50;56.90;;;;;;5074406;28;20040;-61
2023/05/27 12:32:36;;;;;;;10.07;3.45;;;21.50;56.90;;;;;;5075282;28;20089;-61
2023/05/27 12:35:02;;;;;;;10.43;3.03;;;21.50;56.90;;;;;;5074429;28;20044;-61
2023/05/27 12:37:27;;;;;;;8.75;3.22;;;21.50;56.90;;;;;;5075014;28;20193;-61
2023/05/27 12:39:53;;;;;;;10.05;3.53;;;21.50;56.90;;;;;;5074920;28;20051;-60
2023/05/27 12:42:19;;;;;;;11.05;2.90;;;21.50;56.80;;;;;;5073865;28;20489;-61